sensor_id;sensor_type;location;lat;lon;timestamp;pressure;altitude;pressure_sealevel;temperature;humidity
45789;BME280;31492;54.856;26.318;2023-04-26T00:01:40;1010.6;;;10.1;61.9
45789;BME280;31492;54.856;26.318;2023-04-26T00:06:08;1010.6;;;10.1;61.5
45789;BME280;31492;54.856;26.318;2023-04-26T00:11:28;1010.7;;;10;61.7
45789;BME280;31492;54.856;26.318;2023-04-26T00:16:08;1010.8;;;9.8;62.6
45789;BME280;31492;54.856;26.318;2023-04-26T00:21:24;1010.8;;;9.6;63.2
45789;BME280;31492;54.856;26.318;2023-04-26T00:26:36;1010.8;;;9.4;63.5
45789;BME280;31492;54.856;26.318;2023-04-26T00:31:12;1010.7;;;9.3;63.8
45789;BME280;31492;54.856;26.318;2023-04-26T00:36:18;1010.6;;;9.2;64
45789;BME280;31492;54.856;26.318;2023-04-26T00:41:30;1010.6;;;9.1;64.3
45789;BME280;31492;54.856;26.318;2023-04-26T00:46:26;1010.6;;;9;64.9
45789;BME280;31492;54.856;26.318;2023-04-26T00:51:18;1010.5;;;8.9;65.1
45789;BME280;31492;54.856;26.318;2023-04-26T00:56:30;1010.6;;;8.8;65.6
45789;BME280;31492;54.856;26.318;2023-04-26T01:01:24;1010.6;;;8.8;65.9
45789;BME280;31492;54.856;26.318;2023-04-26T01:06:18;1010.7;;;8.8;66.2
45789;BME280;31492;54.856;26.318;2023-04-26T01:11:08;1010.7;;;8.7;66.5
45789;BME280;31492;54.856;26.318;2023-04-26T01:16:26;1010.7;;;8.7;66.7
45789;BME280;31492;54.856;26.318;2023-04-26T01:21:08;1010.7;;;8.7;66.8
45789;BME280;31492;54.856;26.318;2023-04-26T01:26:28;1010.7;;;8.8;66.7
45789;BME280;31492;54.856;26.318;2023-04-26T01:31:14;1010.7;;;8.8;66.4
45789;BME280;31492;54.856;26.318;2023-04-26T01:36:30;1010.8;;;8.8;66.4
45789;BME280;31492;54.856;26.318;2023-04-26T01:41:08;1010.8;;;8.9;66.1
45789;BME280;31492;54.856;26.318;2023-04-26T01:46:24;1010.8;;;9;65.3
45789;BME280;31492;54.856;26.318;2023-04-26T01:51:18;1010.8;;;9.1;64.7
45789;BME280;31492;54.856;26.318;2023-04-26T01:56:18;1010.7;;;9.1;64.2
45789;BME280;31492;54.856;26.318;2023-04-26T02:01:08;1010.7;;;9.1;63.4
45789;BME280;31492;54.856;26.318;2023-04-26T02:06:08;1010.8;;;9;63.1
45789;BME280;31492;54.856;26.318;2023-04-26T02:11:08;1010.8;;;9.1;63
45789;BME280;31492;54.856;26.318;2023-04-26T02:16:08;1010.8;;;8.9;63.1
45789;BME280;31492;54.856;26.318;2023-04-26T02:21:09;1010.8;;;8.7;64.1
45789;BME280;31492;54.856;26.318;2023-04-26T02:26:42;1010.7;;;8.5;64.6
45789;BME280;31492;54.856;26.318;2023-04-26T02:31:30;1010.7;;;8.3;65
45789;BME280;31492;54.856;26.318;2023-04-26T02:36:08;1010.7;;;8.2;65.3
45789;BME280;31492;54.856;26.318;2023-04-26T02:41:18;1010.7;;;8.1;65.6
45789;BME280;31492;54.856;26.318;2023-04-26T02:46:28;1010.6;;;8;65.7
45789;BME280;31492;54.856;26.318;2023-04-26T02:51:18;1010.6;;;8.1;65.2
45789;BME280;31492;54.856;26.318;2023-04-26T02:56:14;1010.6;;;8;65.6
45789;BME280;31492;54.856;26.318;2023-04-26T03:01:08;1010.7;;;7.8;66.4
45789;BME280;31492;54.856;26.318;2023-04-26T03:06:28;1010.7;;;7.7;66.6
45789;BME280;31492;54.856;26.318;2023-04-26T03:11:08;1010.7;;;7.8;66.7
45789;BME280;31492;54.856;26.318;2023-04-26T03:16:08;1010.7;;;7.8;66.8
45789;BME280;31492;54.856;26.318;2023-04-26T03:21:28;1010.7;;;7.8;67.2
45789;BME280;31492;54.856;26.318;2023-04-26T03:26:18;1010.7;;;7.7;67.4
45789;BME280;31492;54.856;26.318;2023-04-26T03:31:16;1010.8;;;7.7;67.7
45789;BME280;31492;54.856;26.318;2023-04-26T03:36:08;1010.8;;;7.7;67.9
45789;BME280;31492;54.856;26.318;2023-04-26T03:41:26;1010.8;;;7.7;68
45789;BME280;31492;54.856;26.318;2023-04-26T03:46:18;1010.8;;;7.8;67.7
45789;BME280;31492;54.856;26.318;2023-04-26T03:51:26;1010.8;;;8;67.1
45789;BME280;31492;54.856;26.318;2023-04-26T03:56:18;1010.8;;;8.1;67.1
45789;BME280;31492;54.856;26.318;2023-04-26T04:01:18;1010.8;;;8.1;67.3
45789;BME280;31492;54.856;26.318;2023-04-26T04:06:42;1010.8;;;8.1;67.2
45789;BME280;31492;54.856;26.318;2023-04-26T04:11:18;1010.8;;;8.2;67.3
45789;BME280;31492;54.856;26.318;2023-04-26T04:16:30;1010.8;;;8.2;67.8
45789;BME280;31492;54.856;26.318;2023-04-26T04:21:08;1010.8;;;8.2;68.4
45789;BME280;31492;54.856;26.318;2023-04-26T04:26:08;1010.8;;;8.4;67.7
45789;BME280;31492;54.856;26.318;2023-04-26T04:31:08;1010.8;;;8.5;68.4
45789;BME280;31492;54.856;26.318;2023-04-26T04:36:26;1010.8;;;8.7;67.5
45789;BME280;31492;54.856;26.318;2023-04-26T04:41:08;1010.8;;;8.9;66.7
45789;BME280;31492;54.856;26.318;2023-04-26T04:46:18;1010.8;;;9.1;67
45789;BME280;31492;54.856;26.318;2023-04-26T04:51:22;1010.8;;;9.3;66.9
45789;BME280;31492;54.856;26.318;2023-04-26T04:56:08;1010.8;;;9.4;67.4
45789;BME280;31492;54.856;26.318;2023-04-26T05:01:08;1010.8;;;9.6;67.2
45789;BME280;31492;54.856;26.318;2023-04-26T05:06:08;1010.8;;;9.8;67
45789;BME280;31492;54.856;26.318;2023-04-26T05:11:08;1010.9;;;9.9;67.3
45789;BME280;31492;54.856;26.318;2023-04-26T05:16:28;1010.9;;;10.1;67.9
45789;BME280;31492;54.856;26.318;2023-04-26T05:21:24;1010.9;;;10.3;67.1
45789;BME280;31492;54.856;26.318;2023-04-26T05:26:24;1011;;;10.5;66.9
45789;BME280;31492;54.856;26.318;2023-04-26T05:31:08;1011.1;;;10.8;66.3
45789;BME280;31492;54.856;26.318;2023-04-26T05:36:16;1011.2;;;11;66
45789;BME280;31492;54.856;26.318;2023-04-26T05:41:08;1011.2;;;11.1;65.8
45789;BME280;31492;54.856;26.318;2023-04-26T05:46:18;1011.3;;;11.3;65.4
45789;BME280;31492;54.856;26.318;2023-04-26T05:51:28;1011.4;;;11.5;65.5
45789;BME280;31492;54.856;26.318;2023-04-26T05:56:20;1011.3;;;11.6;65.4
45789;BME280;31492;54.856;26.318;2023-04-26T06:01:14;1011.2;;;11.7;65.1
45789;BME280;31492;54.856;26.318;2023-04-26T06:06:08;1011.2;;;11.9;65
45789;BME280;31492;54.856;26.318;2023-04-26T06:11:20;1011.2;;;11.9;65.3
45789;BME280;31492;54.856;26.318;2023-04-26T06:16:34;1011.2;;;12;65.3
45789;BME280;31492;54.856;26.318;2023-04-26T06:21:08;1011.3;;;12;65.2
45789;BME280;31492;54.856;26.318;2023-04-26T06:26:18;1011.3;;;12.2;65.4
45789;BME280;31492;54.856;26.318;2023-04-26T06:31:08;1011.3;;;12.4;65.7
45789;BME280;31492;54.856;26.318;2023-04-26T06:36:18;1011.3;;;12.4;65.6
45789;BME280;31492;54.856;26.318;2023-04-26T06:41:18;1011.4;;;12.6;65.5
45789;BME280;31492;54.856;26.318;2023-04-26T06:46:08;1011.5;;;12.5;65.4
45789;BME280;31492;54.856;26.318;2023-04-26T06:51:08;1011.5;;;12.5;65.4
45789;BME280;31492;54.856;26.318;2023-04-26T06:56:24;1011.6;;;12.6;65.1
45789;BME280;31492;54.856;26.318;2023-04-26T07:01:26;1011.6;;;12.7;65
45789;BME280;31492;54.856;26.318;2023-04-26T07:06:20;1011.5;;;12.8;64.7
45789;BME280;31492;54.856;26.318;2023-04-26T07:11:09;1011.6;;;12.9;64.6
45789;BME280;31492;54.856;26.318;2023-04-26T07:16:16;1011.5;;;13;64.3
45789;BME280;31492;54.856;26.318;2023-04-26T07:21:08;1011.5;;;13.2;63.8
45789;BME280;31492;54.856;26.318;2023-04-26T07:26:26;1011.5;;;13.4;63.3
45789;BME280;31492;54.856;26.318;2023-04-26T07:31:08;1011.6;;;13.5;63.2
45789;BME280;31492;54.856;26.318;2023-04-26T07:36:14;1011.6;;;13.6;62.9
45789;BME280;31492;54.856;26.318;2023-04-26T07:41:08;1011.6;;;13.8;62.7
45789;BME280;31492;54.856;26.318;2023-04-26T07:46:16;1011.6;;;13.9;62.3
45789;BME280;31492;54.856;26.318;2023-04-26T07:51:14;1011.6;;;14;62.3
45789;BME280;31492;54.856;26.318;2023-04-26T07:56:22;1011.6;;;14.1;62
45789;BME280;31492;54.856;26.318;2023-04-26T08:01:16;1011.5;;;14.2;61.6
45789;BME280;31492;54.856;26.318;2023-04-26T08:06:30;1011.6;;;14.1;61.8
45789;BME280;31492;54.856;26.318;2023-04-26T08:11:18;1011.6;;;14.1;61.6
45789;BME280;31492;54.856;26.318;2023-04-26T08:16:24;1011.6;;;14.1;61.7
45789;BME280;31492;54.856;26.318;2023-04-26T08:21:08;1011.6;;;14.2;61.6
45789;BME280;31492;54.856;26.318;2023-04-26T08:26:14;1011.6;;;14.2;61.5
45789;BME280;31492;54.856;26.318;2023-04-26T08:31:26;1011.6;;;14.3;61.3
45789;BME280;31492;54.856;26.318;2023-04-26T08:36:18;1011.7;;;14.5;61.4
45789;BME280;31492;54.856;26.318;2023-04-26T08:41:08;1011.8;;;14.7;60.9
45789;BME280;31492;54.856;26.318;2023-04-26T08:46:09;1011.8;;;14.9;60.3
45789;BME280;31492;54.856;26.318;2023-04-26T08:51:24;1011.9;;;14.9;60
45789;BME280;31492;54.856;26.318;2023-04-26T08:56:26;1012;;;14.8;60.2
45789;BME280;31492;54.856;26.318;2023-04-26T09:01:08;1012.1;;;14.7;60.4
45789;BME280;31492;54.856;26.318;2023-04-26T09:06:14;1012.1;;;14.6;60.5
45789;BME280;31492;54.856;26.318;2023-04-26T09:11:08;1012.1;;;14.5;60.6
45789;BME280;31492;54.856;26.318;2023-04-26T09:16:09;1012.2;;;14.4;60.9
45789;BME280;31492;54.856;26.318;2023-04-26T09:21:24;1012.1;;;14.3;60.8
45789;BME280;31492;54.856;26.318;2023-04-26T09:26:16;1012.1;;;14.3;60.9
45789;BME280;31492;54.856;26.318;2023-04-26T09:31:08;1012.2;;;14.3;61.2
45789;BME280;31492;54.856;26.318;2023-04-26T09:36:09;1012.3;;;14.2;61.8
45789;BME280;31492;54.856;26.318;2023-04-26T09:41:40;1012.2;;;14.1;62.4
45789;BME280;31492;54.856;26.318;2023-04-26T09:46:08;1012.2;;;14;62.7
45789;BME280;31492;54.856;26.318;2023-04-26T09:51:14;1012.2;;;13.8;63.4
45789;BME280;31492;54.856;26.318;2023-04-26T09:56:09;1012.3;;;13.6;63.5
45789;BME280;31492;54.856;26.318;2023-04-26T10:01:08;1012.4;;;13.5;63.8
45789;BME280;31492;54.856;26.318;2023-04-26T10:06:08;1012.5;;;13.4;64.4
45789;BME280;31492;54.856;26.318;2023-04-26T10:11:18;1012.5;;;13.3;64.6
45789;BME280;31492;54.856;26.318;2023-04-26T10:16:30;1012.5;;;13.3;64.5
45789;BME280;31492;54.856;26.318;2023-04-26T10:21:25;1012.5;;;13.1;64.5
45789;BME280;31492;54.856;26.318;2023-04-26T10:26:52;1012.6;;;13;64.7
45789;BME280;31492;54.856;26.318;2023-04-26T10:31:16;1012.7;;;12.8;64.7
45789;BME280;31492;54.856;26.318;2023-04-26T10:36:20;1012.7;;;12.7;64.7
45789;BME280;31492;54.856;26.318;2023-04-26T10:41:28;1012.8;;;12.7;64.9
45789;BME280;31492;54.856;26.318;2023-04-26T10:46:38;1012.8;;;12.7;64.3
45789;BME280;31492;54.856;26.318;2023-04-26T10:51:08;1012.8;;;12.7;64.4
45789;BME280;31492;54.856;26.318;2023-04-26T10:56:32;1012.9;;;12.8;64.5
45789;BME280;31492;54.856;26.318;2023-04-26T11:01:14;1012.9;;;12.8;64.6
45789;BME280;31492;54.856;26.318;2023-04-26T11:06:16;1013;;;12.8;64.1
45789;BME280;31492;54.856;26.318;2023-04-26T11:11:09;1013;;;12.8;63.8
45789;BME280;31492;54.856;26.318;2023-04-26T11:16:08;1013.1;;;12.8;63.8
45789;BME280;31492;54.856;26.318;2023-04-26T11:21:20;1013.2;;;12.7;63.4
45789;BME280;31492;54.856;26.318;2023-04-26T11:26:16;1013.2;;;12.5;63.7
45789;BME280;31492;54.856;26.318;2023-04-26T11:31:08;1013.3;;;12.4;63.8
45789;BME280;31492;54.856;26.318;2023-04-26T11:36:08;1013.3;;;12.2;63.5
45789;BME280;31492;54.856;26.318;2023-04-26T11:41:08;1013.4;;;12.1;63.7
45789;BME280;31492;54.856;26.318;2023-04-26T11:46:08;1013.4;;;12;63.8
45789;BME280;31492;54.856;26.318;2023-04-26T11:51:42;1013.4;;;11.9;63.9
45789;BME280;31492;54.856;26.318;2023-04-26T11:56:16;1013.4;;;11.7;64.1
45789;BME280;31492;54.856;26.318;2023-04-26T12:01:28;1013.4;;;11.7;64.1
45789;BME280;31492;54.856;26.318;2023-04-26T12:06:08;1013.5;;;11.7;63.8
45789;BME280;31492;54.856;26.318;2023-04-26T13:11:14;1013.5;;;11.6;63.8
45789;BME280;31492;54.856;26.318;2023-04-26T13:46:22;1014.3;;;10.1;66
45789;BME280;31492;54.856;26.318;2023-04-26T13:51:18;1014.3;;;10.1;65.4
45789;BME280;31492;54.856;26.318;2023-04-26T13:56:20;1014.3;;;10.1;65.1
45789;BME280;31492;54.856;26.318;2023-04-26T14:01:08;1014.3;;;10.1;64.6
45789;BME280;31492;54.856;26.318;2023-04-26T14:06:14;1014.3;;;10.1;64.4
45789;BME280;31492;54.856;26.318;2023-04-26T14:11:14;1014.3;;;10.1;64.2
45789;BME280;31492;54.856;26.318;2023-04-26T14:16:20;1014.4;;;10.1;63.9
45789;BME280;31492;54.856;26.318;2023-04-26T14:21:08;1014.4;;;10.1;63.9
45789;BME280;31492;54.856;26.318;2023-04-26T14:26:18;1014.5;;;10;63.7
45789;BME280;31492;54.856;26.318;2023-04-26T14:31:08;1014.5;;;10;63.3
45789;BME280;31492;54.856;26.318;2023-04-26T14:36:08;1014.6;;;10;63.6
45789;BME280;31492;54.856;26.318;2023-04-26T14:41:20;1014.6;;;10.1;63.2
45789;BME280;31492;54.856;26.318;2023-04-26T14:46:08;1014.6;;;10.1;63.1
45789;BME280;31492;54.856;26.318;2023-04-26T14:51:08;1014.6;;;10.2;62.7
45789;BME280;31492;54.856;26.318;2023-04-26T14:56:09;1014.7;;;10.2;62.9
45789;BME280;31492;54.856;26.318;2023-04-26T15:01:26;1014.8;;;10.2;62.7
45789;BME280;31492;54.856;26.318;2023-04-26T15:06:08;1014.9;;;10.1;62.6
45789;BME280;31492;54.856;26.318;2023-04-26T15:11:28;1015;;;10;62.4
45789;BME280;31492;54.856;26.318;2023-04-26T15:16:08;1015.1;;;10;62.6
45789;BME280;31492;54.856;26.318;2023-04-26T15:21:13;1015.1;;;9.9;62.7
45789;BME280;31492;54.856;26.318;2023-04-26T15:26:08;1015.2;;;9.8;62.9
45789;BME280;31492;54.856;26.318;2023-04-26T15:31:16;1015.2;;;9.8;63
45789;BME280;31492;54.856;26.318;2023-04-26T15:36:08;1015.1;;;9.7;62.8
45789;BME280;31492;54.856;26.318;2023-04-26T15:41:20;1015.1;;;9.7;62.8
45789;BME280;31492;54.856;26.318;2023-04-26T15:46:26;1015.1;;;9.7;62.7
45789;BME280;31492;54.856;26.318;2023-04-26T15:51:08;1015.2;;;9.6;62.6
45789;BME280;31492;54.856;26.318;2023-04-26T15:56:42;1015.2;;;9.6;62.9
45789;BME280;31492;54.856;26.318;2023-04-26T16:01:08;1015.3;;;9.5;63.1
45789;BME280;31492;54.856;26.318;2023-04-26T16:06:08;1015.3;;;9.5;62.9
45789;BME280;31492;54.856;26.318;2023-04-26T16:11:38;1015.4;;;9.4;63.3
45789;BME280;31492;54.856;26.318;2023-04-26T16:16:38;1015.4;;;9.4;63
45789;BME280;31492;54.856;26.318;2023-04-26T16:21:38;1015.6;;;9.3;63
45789;BME280;31492;54.856;26.318;2023-04-26T16:26:08;1015.8;;;9.3;63
45789;BME280;31492;54.856;26.318;2023-04-26T16:31:48;1015.8;;;9.3;63.3
45789;BME280;31492;54.856;26.318;2023-04-26T16:36:38;1015.5;;;9.3;63.5
45789;BME280;31492;54.856;26.318;2023-04-26T16:41:08;1015.4;;;9.3;63.5
45789;BME280;31492;54.856;26.318;2023-04-26T16:46:30;1015.4;;;9.3;63.9
45789;BME280;31492;54.856;26.318;2023-04-26T16:51:18;1015.5;;;9.2;63.9
45789;BME280;31492;54.856;26.318;2023-04-26T16:56:08;1015.5;;;9.2;64
45789;BME280;31492;54.856;26.318;2023-04-26T17:01:44;1015.5;;;9.2;64
45789;BME280;31492;54.856;26.318;2023-04-26T17:06:22;1015.5;;;9.2;64
45789;BME280;31492;54.856;26.318;2023-04-26T17:11:11;1015.6;;;9.1;64
45789;BME280;31492;54.856;26.318;2023-04-26T17:16:16;1015.7;;;9.1;64.2
45789;BME280;31492;54.856;26.318;2023-04-26T17:21:32;1015.8;;;9;64.3
45789;BME280;31492;54.856;26.318;2023-04-26T17:26:28;1015.9;;;8.9;64.5
45789;BME280;31492;54.856;26.318;2023-04-26T17:31:18;1016;;;9;64.5
45789;BME280;31492;54.856;26.318;2023-04-26T17:36:44;1016;;;9;64.7
45789;BME280;31492;54.856;26.318;2023-04-26T17:41:40;1016;;;8.9;65.2
45789;BME280;31492;54.856;26.318;2023-04-26T17:46:26;1016;;;8.9;65.6
45789;BME280;31492;54.856;26.318;2023-04-26T17:51:30;1016.3;;;8.8;66
45789;BME280;31492;54.856;26.318;2023-04-26T17:56:36;1016.5;;;8.8;66.3
45789;BME280;31492;54.856;26.318;2023-04-26T18:01:08;1016.5;;;8.7;66.2
45789;BME280;31492;54.856;26.318;2023-04-26T18:06:34;1016.7;;;8.6;66.7
45789;BME280;31492;54.856;26.318;2023-04-26T18:11:08;1016.8;;;8.6;66.8
45789;BME280;31492;54.856;26.318;2023-04-26T18:16:30;1016.8;;;8.5;67.5
45789;BME280;31492;54.856;26.318;2023-04-26T18:21:08;1016.8;;;8.5;67.7
45789;BME280;31492;54.856;26.318;2023-04-26T18:26:14;1016.7;;;8.6;67.5
45789;BME280;31492;54.856;26.318;2023-04-26T18:31:18;1016.7;;;8.7;67.4
45789;BME280;31492;54.856;26.318;2023-04-26T18:36:08;1016.6;;;8.6;67.6
45789;BME280;31492;54.856;26.318;2023-04-26T18:41:08;1016.7;;;8.5;67.8
45789;BME280;31492;54.856;26.318;2023-04-26T18:46:08;1016.8;;;8.4;67.9
45789;BME280;31492;54.856;26.318;2023-04-26T18:51:16;1016.8;;;8.4;68.1
45789;BME280;31492;54.856;26.318;2023-04-26T18:56:20;1016.9;;;8.3;68.3
45789;BME280;31492;54.856;26.318;2023-04-26T19:01:20;1017.2;;;8.4;68.2
45789;BME280;31492;54.856;26.318;2023-04-26T19:06:14;1017.3;;;8.4;68.3
45789;BME280;31492;54.856;26.318;2023-04-26T19:11:30;1017.3;;;8.4;68.2
45789;BME280;31492;54.856;26.318;2023-04-26T19:16:20;1017.1;;;8.4;68.2
45789;BME280;31492;54.856;26.318;2023-04-26T19:21:28;1017.1;;;8.3;68.3
45789;BME280;31492;54.856;26.318;2023-04-26T19:26:09;1017.2;;;8.4;68.5
45789;BME280;31492;54.856;26.318;2023-04-26T19:31:22;1017.2;;;8.4;68.5
45789;BME280;31492;54.856;26.318;2023-04-26T19:36:14;1017.2;;;8.3;68.6
45789;BME280;31492;54.856;26.318;2023-04-26T19:41:08;1017.2;;;8.3;68.5
45789;BME280;31492;54.856;26.318;2023-04-26T19:46:10;1017.1;;;8.2;68.5
45789;BME280;31492;54.856;26.318;2023-04-26T19:51:18;1017;;;8.2;68.4
45789;BME280;31492;54.856;26.318;2023-04-26T19:56:09;1017;;;8.1;68.7
45789;BME280;31492;54.856;26.318;2023-04-26T20:01:20;1016.9;;;8.1;68.7
45789;BME280;31492;54.856;26.318;2023-04-26T20:06:08;1017;;;8;68.6
45789;BME280;31492;54.856;26.318;2023-04-26T20:11:08;1017.2;;;7.9;68.8
45789;BME280;31492;54.856;26.318;2023-04-26T20:16:24;1017.2;;;7.9;68.8
45789;BME280;31492;54.856;26.318;2023-04-26T20:21:24;1017.2;;;8;68.9
45789;BME280;31492;54.856;26.318;2023-04-26T20:26:32;1017.3;;;8;68.8
45789;BME280;31492;54.856;26.318;2023-04-26T20:31:40;1017.3;;;8;68.9
45789;BME280;31492;54.856;26.318;2023-04-26T20:36:24;1017.4;;;7.9;69
45789;BME280;31492;54.856;26.318;2023-04-26T20:41:08;1017.5;;;7.9;69
45789;BME280;31492;54.856;26.318;2023-04-26T20:46:14;1017.5;;;7.9;69.1
45789;BME280;31492;54.856;26.318;2023-04-26T20:51:20;1017.5;;;7.9;69.1
45789;BME280;31492;54.856;26.318;2023-04-26T20:56:30;1017.5;;;7.8;68.8
45789;BME280;31492;54.856;26.318;2023-04-26T21:31:24;1017.5;;;7.5;68.9
45789;BME280;31492;54.856;26.318;2023-04-26T21:36:08;1017.5;;;7.5;68.8
45789;BME280;31492;54.856;26.318;2023-04-26T21:41:36;1017.6;;;7.4;69
45789;BME280;31492;54.856;26.318;2023-04-26T21:46:16;1017.7;;;7.4;68.8
45789;BME280;31492;54.856;26.318;2023-04-26T21:51:08;1017.7;;;7.3;69
45789;BME280;31492;54.856;26.318;2023-04-26T21:56:26;1017.8;;;7.3;69.3
45789;BME280;31492;54.856;26.318;2023-04-26T22:01:09;1017.8;;;7.4;69.1
45789;BME280;31492;54.856;26.318;2023-04-26T22:06:28;1017.9;;;7.5;69.1
45789;BME280;31492;54.856;26.318;2023-04-26T22:11:08;1017.9;;;7.5;69.1
45789;BME280;31492;54.856;26.318;2023-04-26T22:16:08;1017.9;;;7.5;69.2
45789;BME280;31492;54.856;26.318;2023-04-26T22:21:08;1017.9;;;7.5;68.8
45789;BME280;31492;54.856;26.318;2023-04-26T22:26:28;1017.9;;;7.6;68.4
45789;BME280;31492;54.856;26.318;2023-04-26T22:31:08;1017.9;;;7.6;68.3
45789;BME280;31492;54.856;26.318;2023-04-26T22:36:08;1018;;;7.6;68.4
45789;BME280;31492;54.856;26.318;2023-04-26T22:41:14;1018;;;7.7;68.5
45789;BME280;31492;54.856;26.318;2023-04-26T22:46:32;1018;;;7.7;68.4
45789;BME280;31492;54.856;26.318;2023-04-26T22:51:32;1018.1;;;7.7;68.5
45789;BME280;31492;54.856;26.318;2023-04-26T22:56:18;1018.1;;;7.7;68.5
45789;BME280;31492;54.856;26.318;2023-04-26T23:01:34;1018.1;;;7.6;68.8
45789;BME280;31492;54.856;26.318;2023-04-26T23:06:08;1018.1;;;7.6;68.8
45789;BME280;31492;54.856;26.318;2023-04-26T23:11:30;1018.1;;;7.7;68.8
45789;BME280;31492;54.856;26.318;2023-04-26T23:16:08;1018.1;;;7.6;69.4
45789;BME280;31492;54.856;26.318;2023-04-26T23:21:26;1018.1;;;7.6;69.4
45789;BME280;31492;54.856;26.318;2023-04-26T23:26:24;1018.1;;;7.6;69.3
45789;BME280;31492;54.856;26.318;2023-04-26T23:31:08;1018.1;;;7.5;69.5
45789;BME280;31492;54.856;26.318;2023-04-26T23:36:09;1018.1;;;7.5;69.5
45789;BME280;31492;54.856;26.318;2023-04-26T23:41:32;1018.1;;;7.5;69.7
45789;BME280;31492;54.856;26.318;2023-04-26T23:46:08;1018.1;;;7.6;69.4
45789;BME280;31492;54.856;26.318;2023-04-26T23:51:08;1018.1;;;7.5;69.8
45789;BME280;31492;54.856;26.318;2023-04-26T23:56:32;1018.2;;;7.5;69.7
